Time;durP1;ratioP1;P1;durP2;ratioP2;P2;SDS_P1;SDS_P2;PMS_P1;PMS_P2;Temp;Humidity;BMP_temperature;BMP_pressure;BME280_temperature;BME280_humidity;BME280_pressure;Samples;Min_cycle;Max_cycle;Signal;HPM_P1;HPM_P2
2021/12/07 00:01:00;;;;;;;3.85;3.53;;;;;;;;;;5071710;28;20086;-60
2021/12/07 00:03:26;;;;;;;3.95;3.65;;;;;;;;;;5071033;28;20048;-60
2021/12/07 00:05:52;;;;;;;3.88;3.53;;;;;;;;;;5071450;28;20040;-60
2021/12/07 00:08:19;;;;;;;3.85;3.45;;;;;;;;;;5071296;28;20048;-60
2021/12/07 00:10:50;;;;;;;3.58;3.28;;;;;;;;;;5071022;28;20040;-60
2021/12/07 00:13:17;;;;;;;4.22;3.83;;;;;;;;;;5071648;28;20131;-60
2021/12/07 00:15:44;;;;;;;3.63;3.33;;;;;;;;;;5070717;28;20052;-60
2021/12/07 00:18:10;;;;;;;4.50;4.10;;;;;;;;;;5071669;28;20043;-60
2021/12/07 00:20:36;;;;;;;3.78;3.47;;;;;;;;;;5071453;28;20040;-60
2021/12/07 00:23:04;;;;;;;3.80;3.50;;;;;;;;;;5070803;28;20052;-60
2021/12/07 00:25:31;;;;;;;4.38;3.75;;;;;;;;;;5071826;28;20113;-60
2021/12/07 00:27:57;;;;;;;3.92;3.53;;;;;;;;;;5071091;28;20044;-60
2021/12/07 00:30:28;;;;;;;3.85;3.55;;;;;;;;;;5070752;28;20051;-60
2021/12/07 00:33:08;;;;;;;4.20;3.83;;;;;;;;;;5070878;28;20059;-60
2021/12/07 00:35:35;;;;;;;4.03;3.70;;;;;;;;;;5071574;28;20682;-60
2021/12/07 00:38:02;;;;;;;4.63;3.50;;;;;;;;;;5070198;28;20057;-60
2021/12/07 00:40:28;;;;;;;4.00;3.67;;;;;;;;;;5071440;28;20056;-60
2021/12/07 00:42:55;;;;;;;3.78;3.40;;;;;;;;;;5071030;28;20126;-60
2021/12/07 00:45:22;;;;;;;4.10;3.75;;;;;;;;;;5070553;28;20053;-60
2021/12/07 00:47:51;;;;;;;4.35;3.95;;;;;;;;;;5070705;28;20061;-60
2021/12/07 00:50:18;;;;;;;4.68;3.75;;;;;;;;;;5071044;28;20449;-60
2021/12/07 00:52:44;;;;;;;4.40;3.63;;;;;;;;;;5070258;28;20045;-60
2021/12/07 00:55:12;;;;;;;4.07;3.75;;;;;;;;;;5071186;28;20074;-60
2021/12/07 00:57:39;;;;;;;4.07;3.67;;;;;;;;;;5070485;28;20052;-60
2021/12/07 01:00:06;;;;;;;5.00;4.50;;;;;;;;;;5070624;28;20052;-60
2021/12/07 01:02:33;;;;;;;4.13;3.72;;;;;;;;;;5071215;28;20106;-60
2021/12/07 01:05:08;;;;;;;3.97;3.58;;;;;;;;;;5070272;28;20049;-60
2021/12/07 01:07:53;;;;;;;4.35;3.97;;;;;;;;;;5070879;28;20598;-60
2021/12/07 01:26:46;;;;;;;4.60;4.20;;;;;;;;;;5072894;28;20095;-61
2021/12/07 01:29:12;;;;;;;4.55;4.15;;;;;;;;;;5073322;28;20041;-60
2021/12/07 01:31:50;;;;;;;5.00;4.50;;;;;;;;;;5074444;28;20048;-60
2021/12/07 01:34:38;;;;;;;4.40;4.00;;;;;;;;;;5072778;28;20045;-61
2021/12/07 01:37:15;;;;;;;4.68;4.18;;;;;;;;;;5074238;28;20047;-61
2021/12/07 01:40:03;;;;;;;4.72;4.30;;;;;;;;;;5074073;28;20052;-61
2021/12/07 01:43:13;;;;;;;4.65;4.25;;;;;;;;;;5074445;28;20456;-61
2021/12/07 01:51:22;;;;;;;5.35;4.85;;;;;;;;;;5072819;28;20337;-60
2021/12/07 01:59:33;;;;;;;4.95;4.50;;;;;;;;;;5073852;28;20423;-60
2021/12/07 02:02:00;;;;;;;4.80;4.40;;;;;;;;;;5072740;28;20082;-61
2021/12/07 02:04:26;;;;;;;5.65;5.07;;;;;;;;;;5072007;28;20044;-60
2021/12/07 02:06:53;;;;;;;5.90;5.40;;;;;;;;;;5072238;28;20041;-61
2021/12/07 02:09:20;;;;;;;5.82;5.30;;;;;;;;;;5072454;28;20044;-61
2021/12/07 02:11:49;;;;;;;5.60;4.80;;;;;;;;;;5072631;28;20045;-60
2021/12/07 02:14:16;;;;;;;5.53;5.03;;;;;;;;;;5072129;28;20045;-60
2021/12/07 02:16:43;;;;;;;5.35;4.85;;;;;;;;;;5070828;28;20056;-60
2021/12/07 02:19:09;;;;;;;5.78;5.28;;;;;;;;;;5072804;28;20044;-60
2021/12/07 02:21:37;;;;;;;6.18;5.57;;;;;;;;;;5073305;28;20097;-60
2021/12/07 02:24:03;;;;;;;5.88;5.38;;;;;;;;;;5072079;28;20090;-60
2021/12/07 02:26:29;;;;;;;5.88;5.32;;;;;;;;;;5072959;28;20048;-60
2021/12/07 02:28:57;;;;;;;6.13;5.53;;;;;;;;;;5071121;28;20097;-61
2021/12/07 02:31:24;;;;;;;6.38;5.78;;;;;;;;;;5072481;28;20048;-60
2021/12/07 02:33:50;;;;;;;6.15;5.00;;;;;;;;;;5072651;28;20051;-60
2021/12/07 02:36:16;;;;;;;6.40;5.80;;;;;;;;;;5072928;28;20102;-60
2021/12/07 02:38:46;;;;;;;6.53;5.90;;;;;;;;;;5073324;28;20181;-60
2021/12/07 02:41:12;;;;;;;6.35;5.75;;;;;;;;;;5073469;28;20068;-60
2021/12/07 02:43:38;;;;;;;6.53;5.85;;;;;;;;;;5072530;28;20044;-60
2021/12/07 02:46:05;;;;;;;6.50;5.90;;;;;;;;;;5072878;28;20041;-61
2021/12/07 02:48:31;;;;;;;7.05;6.40;;;;;;;;;;5073257;28;20044;-61
2021/12/07 02:50:57;;;;;;;6.28;5.72;;;;;;;;;;5071896;28;20044;-60
2021/12/07 02:53:26;;;;;;;7.18;6.40;;;;;;;;;;5072965;28;20467;-60
2021/12/07 02:55:54;;;;;;;7.30;6.18;;;;;;;;;;5072908;28;20131;-61
2021/12/07 02:58:20;;;;;;;7.90;6.65;;;;;;;;;;5071760;28;20048;-60
2021/12/07 03:00:54;;;;;;;7.38;6.38;;;;;;;;;;5072224;28;20491;-60
2021/12/07 03:03:20;;;;;;;6.82;6.22;;;;;;;;;;5071640;28;20040;-60
2021/12/07 03:05:54;;;;;;;6.95;6.35;;;;;;;;;;5071095;28;20056;-60
2021/12/07 03:27:50;;;;;;;8.70;6.90;;;;;;;;;;5071263;28;20102;-60
2021/12/07 03:30:16;;;;;;;7.43;6.60;;;;;;;;;;5071611;28;20762;-60
2021/12/07 03:32:43;;;;;;;7.40;6.68;;;;;;;;;;5070638;28;20045;-60
2021/12/07 03:35:09;;;;;;;8.52;7.03;;;;;;;;;;5072506;28;20483;-60
2021/12/07 03:37:35;;;;;;;7.43;6.05;;;;;;;;;;5072374;28;20053;-60
2021/12/07 03:40:02;;;;;;;8.98;6.93;;;;;;;;;;5071360;28;20052;-60
2021/12/07 03:42:28;;;;;;;7.13;6.43;;;;;;;;;;5072284;28;20045;-60
2021/12/07 03:44:55;;;;;;;8.57;6.50;;;;;;;;;;5071922;28;20302;-60
2021/12/07 03:47:21;;;;;;;6.40;5.72;;;;;;;;;;5071414;28;20052;-60
2021/12/07 03:49:48;;;;;;;6.60;5.90;;;;;;;;;;5072007;28;20048;-60
2021/12/07 03:52:14;;;;;;;7.13;6.43;;;;;;;;;;5071928;28;20044;-60
2021/12/07 03:54:40;;;;;;;6.90;5.70;;;;;;;;;;5071414;28;20044;-60
2021/12/07 03:57:06;;;;;;;7.55;6.05;;;;;;;;;;5071776;28;20048;-60
2021/12/07 03:59:33;;;;;;;7.45;6.20;;;;;;;;;;5072008;28;20048;-60
2021/12/07 04:02:01;;;;;;;6.72;5.57;;;;;;;;;;5070913;28;20049;-60
2021/12/07 04:04:28;;;;;;;6.93;5.93;;;;;;;;;;5071680;28;20497;-60
2021/12/07 04:06:54;;;;;;;8.15;5.65;;;;;;;;;;5071585;28;20127;-60
2021/12/07 04:09:20;;;;;;;5.85;5.00;;;;;;;;;;5071019;28;20492;-60
2021/12/07 04:11:46;;;;;;;6.38;5.03;;;;;;;;;;5071427;28;20393;-60
2021/12/07 04:14:13;;;;;;;6.05;4.80;;;;;;;;;;5071852;28;20078;-60
2021/12/07 04:16:39;;;;;;;6.93;4.78;;;;;;;;;;5071090;28;20126;-60
2021/12/07 04:19:06;;;;;;;6.28;4.95;;;;;;;;;;5071371;28;20545;-60
2021/12/07 04:21:33;;;;;;;7.28;4.22;;;;;;;;;;5070928;28;20474;-60
2021/12/07 04:23:59;;;;;;;6.88;4.47;;;;;;;;;;5071324;28;20090;-60
2021/12/07 04:26:26;;;;;;;5.30;4.20;;;;;;;;;;5071417;28;20074;-60
2021/12/07 04:28:52;;;;;;;5.43;4.53;;;;;;;;;;5070550;28;20072;-60
2021/12/07 04:31:20;;;;;;;8.20;4.60;;;;;;;;;;5071626;28;20102;-60
2021/12/07 04:33:46;;;;;;;6.63;4.18;;;;;;;;;;5071127;28;20131;-60
2021/12/07 04:36:14;;;;;;;6.10;4.07;;;;;;;;;;5070614;28;20731;-60
2021/12/07 04:38:40;;;;;;;7.55;4.50;;;;;;;;;;5071388;28;20048;-60
2021/12/07 04:41:07;;;;;;;6.00;3.92;;;;;;;;;;5070960;28;20082;-60
2021/12/07 04:43:33;;;;;;;5.88;3.80;;;;;;;;;;5070710;28;20049;-60
2021/12/07 04:46:08;;;;;;;5.35;4.07;;;;;;;;;;5071158;28;20117;-60
2021/12/07 04:59:28;;;;;;;4.80;3.05;;;;;;;;;;5070850;28;20410;-60
2021/12/07 05:01:55;;;;;;;6.43;3.13;;;;;;;;;;5070832;28;20046;-61
2021/12/07 05:04:25;;;;;;;4.75;2.90;;;;;;;;;;5070270;28;20106;-60
2021/12/07 05:06:59;;;;;;;5.10;2.95;;;;;;;;;;5071030;28;20047;-60
2021/12/07 05:09:39;;;;;;;5.15;3.28;;;;;;;;;;5070998;28;20045;-60
2021/12/07 05:14:46;;;;;;;5.32;2.40;;;;;;;;;;5037177;28;20049;-60
2021/12/07 05:17:22;;;;;;;6.05;2.80;;;;;;;;;;5071162;28;20147;-60
2021/12/07 05:25:37;;;;;;;3.33;2.47;;;;;;;;;;5038827;28;20168;-60
2021/12/07 05:39:06;;;;;;;4.25;2.42;;;;;;;;;;5069637;28;20115;-60
2021/12/07 05:41:33;;;;;;;3.92;2.25;;;;;;;;;;5070816;28;20048;-62
2021/12/07 05:43:59;;;;;;;4.90;2.70;;;;;;;;;;5070540;28;20139;-60
2021/12/07 05:46:26;;;;;;;4.43;2.33;;;;;;;;;;5069789;28;20106;-60
2021/12/07 05:48:52;;;;;;;3.65;2.08;;;;;;;;;;5070441;28;20044;-61
2021/12/07 05:51:19;;;;;;;4.22;2.30;;;;;;;;;;5070728;28;20074;-61
2021/12/07 05:53:45;;;;;;;4.18;2.25;;;;;;;;;;5069467;28;20106;-61
2021/12/07 05:56:12;;;;;;;3.63;2.15;;;;;;;;;;5070800;28;20769;-60
2021/12/07 05:58:39;;;;;;;3.88;2.25;;;;;;;;;;5070678;28;20082;-60
2021/12/07 06:01:05;;;;;;;4.07;1.80;;;;;;;;;;5069468;28;20078;-60
2021/12/07 06:03:32;;;;;;;3.30;2.00;;;;;;;;;;5070557;28;20533;-60
2021/12/07 06:06:01;;;;;;;5.00;2.20;;;;;;;;;;5070152;28;20090;-60
2021/12/07 06:08:28;;;;;;;3.88;2.20;;;;;;;;;;5072462;28;20041;-61
2021/12/07 06:10:54;;;;;;;3.80;1.90;;;;;;;;;;5073848;28;20041;-62
2021/12/07 06:13:21;;;;;;;4.20;2.13;;;;;;;;;;5074197;28;20056;-62
2021/12/07 06:15:48;;;;;;;3.78;1.98;;;;;;;;;;5073072;28;20473;-62
2021/12/07 06:18:14;;;;;;;4.07;1.92;;;;;;;;;;5073944;28;20044;-61
2021/12/07 06:20:41;;;;;;;4.72;2.20;;;;;;;;;;5073904;28;20420;-62
2021/12/07 06:23:08;;;;;;;3.50;1.90;;;;;;;;;;5073127;28;20495;-61
2021/12/07 06:25:34;;;;;;;3.63;1.65;;;;;;;;;;5073867;28;20071;-62
2021/12/07 06:28:00;;;;;;;3.50;1.70;;;;;;;;;;5073678;28;20106;-62
2021/12/07 06:30:28;;;;;;;4.03;1.77;;;;;;;;;;5072783;28;20150;-62
2021/12/07 06:32:54;;;;;;;5.00;2.22;;;;;;;;;;5073419;28;20044;-62
2021/12/07 06:35:20;;;;;;;5.30;1.60;;;;;;;;;;5072808;28;20098;-62
2021/12/07 06:37:46;;;;;;;3.38;1.75;;;;;;;;;;5073491;28;20056;-62
2021/12/07 06:40:13;;;;;;;3.78;1.77;;;;;;;;;;5073388;28;20106;-62
2021/12/07 06:42:39;;;;;;;4.63;2.00;;;;;;;;;;5073017;28;20044;-61
2021/12/07 06:45:06;;;;;;;4.28;2.13;;;;;;;;;;5073070;28;20476;-62
2021/12/07 06:47:34;;;;;;;5.25;2.03;;;;;;;;;;5073548;28;20495;-62
2021/12/07 06:50:00;;;;;;;4.35;1.73;;;;;;;;;;5072205;28;20045;-62
2021/12/07 06:52:26;;;;;;;4.68;2.10;;;;;;;;;;5073410;28;20044;-63
2021/12/07 06:54:53;;;;;;;4.18;2.00;;;;;;;;;;5073034;28;20545;-62
2021/12/07 06:57:19;;;;;;;3.13;1.63;;;;;;;;;;5072528;28;20044;-62
2021/12/07 06:59:46;;;;;;;3.58;1.88;;;;;;;;;;5072786;28;20479;-62
2021/12/07 07:02:12;;;;;;;6.25;1.92;;;;;;;;;;5073051;28;20053;-63
2021/12/07 07:04:40;;;;;;;5.20;2.20;;;;;;;;;;5072440;28;20045;-62
2021/12/07 07:07:06;;;;;;;3.78;1.92;;;;;;;;;;5072062;28;20048;-61
2021/12/07 07:09:32;;;;;;;4.15;2.03;;;;;;;;;;5050743;28;20041;-62
2021/12/07 07:11:58;;;;;;;5.05;2.13;;;;;;;;;;5051900;28;20048;-61
2021/12/07 07:14:25;;;;;;;4.78;1.80;;;;;;;;;;5052700;28;20045;-62
2021/12/07 07:16:51;;;;;;;3.65;1.83;;;;;;;;;;5052416;28;20045;-61
2021/12/07 07:19:17;;;;;;;4.25;1.70;;;;;;;;;;5051374;28;20049;-62
2021/12/07 07:21:45;;;;;;;3.63;1.83;;;;;;;;;;5052382;28;20049;-62
2021/12/07 07:24:11;;;;;;;5.90;2.00;;;;;;;;;;5052201;28;20131;-62
2021/12/07 07:26:37;;;;;;;3.60;2.30;;;;;;;;;;5051648;28;20488;-62
2021/12/07 07:29:04;;;;;;;5.32;2.30;;;;;;;;;;5052040;28;20045;-62
2021/12/07 07:31:31;;;;;;;4.00;2.03;;;;;;;;;;5067494;28;20094;-62
2021/12/07 07:33:57;;;;;;;3.58;1.70;;;;;;;;;;5072065;28;20056;-62
2021/12/07 07:36:23;;;;;;;4.50;1.98;;;;;;;;;;5072486;28;20449;-62
2021/12/07 07:38:51;;;;;;;4.60;2.08;;;;;;;;;;5070805;28;20048;-61
2021/12/07 07:41:17;;;;;;;4.50;2.05;;;;;;;;;;5072406;28;20102;-62
2021/12/07 07:43:43;;;;;;;4.22;1.83;;;;;;;;;;5072080;28;20048;-62
2021/12/07 07:46:09;;;;;;;5.10;1.80;;;;;;;;;;5071483;28;20041;-62
2021/12/07 07:48:36;;;;;;;2.17;1.60;;;;;;;;;;5072242;28;20071;-61
2021/12/07 07:51:02;;;;;;;3.40;1.77;;;;;;;;;;5071980;28;20052;-60
2021/12/07 07:53:28;;;;;;;4.05;1.77;;;;;;;;;;5070929;28;20051;-61
2021/12/07 07:55:56;;;;;;;3.30;1.75;;;;;;;;;;5071785;28;20045;-61
2021/12/07 07:58:22;;;;;;;7.28;1.90;;;;;;;;;;5072477;28;20048;-61
2021/12/07 08:00:49;;;;;;;4.93;2.13;;;;;;;;;;5070774;28;20465;-61
2021/12/07 08:03:15;;;;;;;3.60;2.13;;;;;;;;;;5072085;28;20098;-61
2021/12/07 08:05:42;;;;;;;5.50;2.13;;;;;;;;;;5071989;28;20048;-62
2021/12/07 08:08:08;;;;;;;3.60;1.95;;;;;;;;;;5070663;28;20101;-62
2021/12/07 08:10:34;;;;;;;5.13;1.88;;;;;;;;;;5071825;28;20037;-61
2021/12/07 08:13:03;;;;;;;4.50;2.05;;;;;;;;;;5071470;28;20053;-60
2021/12/07 08:15:31;;;;;;;9.10;2.30;;;;;;;;;;5070915;28;20049;-60
2021/12/07 08:17:57;;;;;;;11.38;2.53;;;;;;;;;;5071554;28;20040;-62
2021/12/07 08:20:23;;;;;;;8.80;2.00;;;;;;;;;;5071652;28;20037;-61
2021/12/07 08:22:50;;;;;;;6.30;1.92;;;;;;;;;;5070001;28;20473;-61
2021/12/07 08:25:16;;;;;;;4.85;2.20;;;;;;;;;;5071513;28;20461;-60
2021/12/07 08:27:45;;;;;;;5.22;2.80;;;;;;;;;;5070698;28;20110;-60
2021/12/07 08:30:15;;;;;;;4.93;2.20;;;;;;;;;;5070657;28;20675;-60
2021/12/07 08:32:45;;;;;;;4.53;2.05;;;;;;;;;;5071517;28;20444;-62
2021/12/07 08:35:11;;;;;;;4.53;2.10;;;;;;;;;;5070814;28;20045;-61
2021/12/07 08:37:37;;;;;;;5.82;2.25;;;;;;;;;;5070916;28;20655;-60
2021/12/07 08:40:04;;;;;;;7.05;2.50;;;;;;;;;;5071023;28;20049;-62
2021/12/07 08:42:31;;;;;;;4.45;2.42;;;;;;;;;;5070535;28;20052;-61
2021/12/07 08:44:57;;;;;;;3.65;1.80;;;;;;;;;;5071267;28;20048;-62
2021/12/07 08:47:24;;;;;;;5.57;2.17;;;;;;;;;;5071163;28;20060;-61
2021/12/07 08:49:54;;;;;;;6.45;2.15;;;;;;;;;;5069867;28;20415;-61
2021/12/07 08:52:20;;;;;;;5.72;2.30;;;;;;;;;;5070758;28;20052;-61
2021/12/07 09:00:14;;;;;;;12.38;2.35;;;;;;;;;;5051004;28;20052;-62
2021/12/07 09:02:42;;;;;;;4.45;2.25;;;;;;;;;;5051154;28;20106;-63
2021/12/07 09:05:09;;;;;;;7.85;2.42;;;;;;;;;;5050187;28;20045;-61
2021/12/07 09:07:35;;;;;;;6.03;2.15;;;;;;;;;;5050551;28;20098;-62
2021/12/07 09:10:01;;;;;;;6.70;2.60;;;;;;;;;;5050782;28;20057;-62
2021/12/07 09:12:29;;;;;;;6.15;2.08;;;;;;;;;;5051192;28;20106;-62
2021/12/07 09:14:56;;;;;;;9.18;2.50;;;;;;;;;;5050634;28;20053;-62
2021/12/07 09:17:22;;;;;;;5.30;2.33;;;;;;;;;;5050201;28;20484;-62
2021/12/07 09:19:50;;;;;;;4.50;2.13;;;;;;;;;;5050612;28;20049;-62
2021/12/07 09:22:16;;;;;;;6.57;2.35;;;;;;;;;;5050276;28;20121;-61
2021/12/07 09:24:43;;;;;;;5.43;2.17;;;;;;;;;;5049696;28;20447;-62
2021/12/07 09:27:09;;;;;;;11.05;2.63;;;;;;;;;;5050885;28;20135;-61
2021/12/07 09:29:36;;;;;;;7.28;2.28;;;;;;;;;;5050917;28;20091;-62
2021/12/07 09:32:03;;;;;;;6.20;2.40;;;;;;;;;;5069842;28;20055;-62
2021/12/07 09:34:30;;;;;;;7.25;2.72;;;;;;;;;;5070891;28;20094;-62
2021/12/07 09:36:57;;;;;;;8.10;3.03;;;;;;;;;;5069952;28;20040;-61
2021/12/07 09:39:24;;;;;;;6.57;2.72;;;;;;;;;;5070227;28;20094;-62
2021/12/07 09:41:50;;;;;;;4.22;2.13;;;;;;;;;;5072239;28;20530;-63
2021/12/07 09:44:17;;;;;;;9.52;2.85;;;;;;;;;;5074690;28;20084;-63
2021/12/07 09:46:44;;;;;;;8.48;2.95;;;;;;;;;;5073294;28;20044;-61
2021/12/07 09:49:10;;;;;;;6.93;3.05;;;;;;;;;;5074510;28;20044;-62
2021/12/07 09:51:37;;;;;;;5.53;2.60;;;;;;;;;;5073734;28;20063;-64
2021/12/07 09:54:06;;;;;;;7.10;2.40;;;;;;;;;;5073883;28;20048;-62
2021/12/07 09:56:32;;;;;;;6.72;2.90;;;;;;;;;;5074537;28;20045;-63
2021/12/07 09:59:00;;;;;;;8.32;2.90;;;;;;;;;;5074296;28;20053;-62
2021/12/07 10:01:28;;;;;;;9.32;2.83;;;;;;;;;;5073443;28;20049;-62
2021/12/07 10:03:54;;;;;;;8.10;2.97;;;;;;;;;;5074030;28;20049;-62
2021/12/07 10:06:20;;;;;;;8.30;2.72;;;;;;;;;;5073859;28;20041;-62
2021/12/07 10:08:47;;;;;;;8.43;3.15;;;;;;;;;;5074053;28;20048;-61
2021/12/07 10:11:15;;;;;;;11.13;3.40;;;;;;;;;;5074322;28;20052;-61
2021/12/07 10:13:42;;;;;;;7.35;2.72;;;;;;;;;;5071831;28;20193;-61
2021/12/07 10:16:10;;;;;;;7.78;3.22;;;;;;;;;;5074156;28;20094;-61
2021/12/07 10:18:37;;;;;;;7.78;3.20;;;;;;;;;;5073946;28;20043;-61
2021/12/07 10:21:05;;;;;;;8.70;3.20;;;;;;;;;;5073050;28;20040;-61
2021/12/07 10:23:34;;;;;;;7.72;3.00;;;;;;;;;;5074159;28;20036;-61
2021/12/07 10:26:02;;;;;;;8.07;3.35;;;;;;;;;;5073713;28;20048;-61
2021/12/07 10:28:31;;;;;;;8.75;3.00;;;;;;;;;;5073236;28;20098;-61
2021/12/07 10:31:00;;;;;;;6.75;2.80;;;;;;;;;;5073474;28;20045;-61
2021/12/07 10:33:30;;;;;;;8.65;3.60;;;;;;;;;;5074087;28;20041;-61
2021/12/07 10:36:06;;;;;;;9.77;3.22;;;;;;;;;;5072953;28;20041;-61
2021/12/07 10:38:32;;;;;;;9.43;4.07;;;;;;;;;;5073849;28;20098;-61
2021/12/07 10:40:59;;;;;;;8.82;3.28;;;;;;;;;;5073413;28;20048;-61
2021/12/07 10:43:43;;;;;;;9.65;2.95;;;;;;;;;;5072807;28;20036;-61
2021/12/07 10:46:31;;;;;;;7.68;2.80;;;;;;;;;;5073643;28;20048;-61
2021/12/07 10:49:15;;;;;;;8.43;3.45;;;;;;;;;;5067335;28;20045;-61
2021/12/07 10:51:42;;;;;;;6.10;2.90;;;;;;;;;;5073342;28;20170;-61
2021/12/07 10:54:09;;;;;;;10.15;3.58;;;;;;;;;;5073035;28;20401;-61
2021/12/07 10:56:37;;;;;;;8.57;3.30;;;;;;;;;;5072538;28;20511;-61
2021/12/07 10:59:05;;;;;;;6.82;3.22;;;;;;;;;;5073141;28;20052;-61
2021/12/07 11:01:33;;;;;;;4.63;3.00;;;;;;;;;;5073356;28;20320;-61
2021/12/07 11:04:14;;;;;;;8.25;3.05;;;;;;;;;;5072208;28;20044;-61
2021/12/07 11:06:55;;;;;;;7.68;3.20;;;;;;;;;;5073195;28;20053;-61
2021/12/07 11:09:21;;;;;;;7.93;3.50;;;;;;;;;;5073043;28;20442;-61
2021/12/07 11:11:48;;;;;;;8.70;3.85;;;;;;;;;;5072156;28;20094;-61
2021/12/07 11:14:15;;;;;;;9.85;3.60;;;;;;;;;;5073100;28;20040;-61
2021/12/07 11:16:43;;;;;;;9.68;3.90;;;;;;;;;;5072104;28;20056;-61
2021/12/07 11:19:20;;;;;;;6.90;3.70;;;;;;;;;;5072945;28;20066;-61
2021/12/07 11:21:46;;;;;;;10.13;3.75;;;;;;;;;;5072516;28;20492;-61
2021/12/07 11:24:14;;;;;;;6.90;3.80;;;;;;;;;;5072151;28;20048;-61
2021/12/07 11:29:41;;;;;;;9.27;3.55;;;;;;;;;;5072808;28;20051;-61
2021/12/07 11:32:08;;;;;;;8.63;4.10;;;;;;;;;;5052088;28;20465;-61
2021/12/07 11:34:39;;;;;;;7.90;3.28;;;;;;;;;;5052766;28;20390;-61
2021/12/07 11:37:07;;;;;;;8.52;3.97;;;;;;;;;;5052281;28;20140;-61
2021/12/07 11:39:37;;;;;;;6.70;3.58;;;;;;;;;;5051698;28;20072;-61
2021/12/07 11:42:05;;;;;;;8.40;3.63;;;;;;;;;;5052360;28;20114;-61
2021/12/07 11:44:34;;;;;;;7.70;3.88;;;;;;;;;;5052745;28;20045;-61
2021/12/07 11:47:01;;;;;;;6.78;3.78;;;;;;;;;;5051290;28;20057;-61
2021/12/07 11:49:29;;;;;;;6.95;3.17;;;;;;;;;;5052583;28;20458;-61
2021/12/07 11:51:57;;;;;;;8.02;3.75;;;;;;;;;;5051311;28;20045;-61
2021/12/07 11:54:29;;;;;;;8.93;4.15;;;;;;;;;;5052211;28;20090;-61
2021/12/07 11:56:55;;;;;;;11.27;4.55;;;;;;;;;;5052057;28;20049;-61
2021/12/07 11:59:21;;;;;;;5.45;3.15;;;;;;;;;;5065815;28;20487;-61
2021/12/07 12:01:50;;;;;;;8.18;3.45;;;;;;;;;;5071962;28;20446;-61
2021/12/07 12:04:18;;;;;;;10.63;4.32;;;;;;;;;;5071637;28;20052;-61
2021/12/07 12:06:46;;;;;;;5.78;3.20;;;;;;;;;;5070621;28;20063;-60
2021/12/07 12:09:12;;;;;;;8.45;3.45;;;;;;;;;;5072153;28;20106;-60
2021/12/07 12:11:41;;;;;;;8.52;3.50;;;;;;;;;;5072243;28;20051;-61
2021/12/07 12:14:16;;;;;;;7.78;3.58;;;;;;;;;;5071270;28;20126;-61
2021/12/07 12:16:46;;;;;;;8.73;3.70;;;;;;;;;;5071798;28;20118;-61
2021/12/07 12:19:19;;;;;;;6.32;3.15;;;;;;;;;;5071862;28;20052;-61
2021/12/07 12:21:48;;;;;;;8.52;3.22;;;;;;;;;;5070502;28;20537;-60
2021/12/07 12:24:18;;;;;;;7.35;3.60;;;;;;;;;;5071825;28;20037;-61
2021/12/07 12:26:45;;;;;;;6.75;3.40;;;;;;;;;;5071422;28;20051;-61
2021/12/07 12:29:16;;;;;;;9.45;3.83;;;;;;;;;;5070990;28;20380;-61
2021/12/07 12:31:44;;;;;;;9.10;3.72;;;;;;;;;;5071197;28;20045;-61
2021/12/07 12:34:16;;;;;;;8.00;3.47;;;;;;;;;;5071123;28;20516;-61
2021/12/07 12:36:55;;;;;;;8.68;3.67;;;;;;;;;;5071548;28;20098;-61
2021/12/07 12:39:39;;;;;;;7.45;3.30;;;;;;;;;;5071603;28;20053;-61
2021/12/07 12:42:05;;;;;;;9.48;3.80;;;;;;;;;;5070297;28;20044;-61
2021/12/07 12:44:34;;;;;;;7.15;3.33;;;;;;;;;;5071770;28;20048;-61
2021/12/07 12:47:00;;;;;;;5.10;3.00;;;;;;;;;;5071117;28;20065;-61
2021/12/07 12:49:38;;;;;;;6.50;3.47;;;;;;;;;;5070788;28;20048;-61
2021/12/07 12:52:04;;;;;;;5.00;3.13;;;;;;;;;;5070984;28;20040;-61
2021/12/07 12:54:37;;;;;;;5.97;3.60;;;;;;;;;;5071345;28;20053;-61
2021/12/07 12:57:07;;;;;;;8.50;3.75;;;;;;;;;;5070411;28;20041;-61
2021/12/07 12:59:37;;;;;;;7.45;3.17;;;;;;;;;;5071732;28;20040;-61
2021/12/07 13:02:03;;;;;;;5.47;3.20;;;;;;;;;;5070233;28;20048;-61
2021/12/07 13:04:31;;;;;;;7.68;3.33;;;;;;;;;;5071300;28;20052;-61
2021/12/07 13:07:23;;;;;;;6.90;3.60;;;;;;;;;;5070802;28;20048;-61
2021/12/07 13:09:49;;;;;;;6.97;3.55;;;;;;;;;;5070354;28;20131;-61
2021/12/07 13:12:17;;;;;;;5.57;3.08;;;;;;;;;;5071300;28;20098;-61
2021/12/07 13:14:57;;;;;;;6.80;3.22;;;;;;;;;;5070889;28;20041;-61
2021/12/07 13:17:26;;;;;;;9.05;3.85;;;;;;;;;;5073298;28;20040;-60
2021/12/07 13:20:10;;;;;;;7.38;3.50;;;;;;;;;;5074805;28;20049;-61
2021/12/07 13:22:41;;;;;;;7.28;3.38;;;;;;;;;;5075206;28;20123;-60
2021/12/07 13:25:09;;;;;;;7.88;3.33;;;;;;;;;;5074551;28;20044;-60
2021/12/07 13:27:36;;;;;;;8.32;3.10;;;;;;;;;;5075071;28;20145;-61
2021/12/07 13:30:05;;;;;;;7.85;3.38;;;;;;;;;;5074595;28;20048;-60
2021/12/07 13:32:32;;;;;;;6.10;2.83;;;;;;;;;;5075016;28;20045;-60
2021/12/07 13:35:02;;;;;;;8.52;3.70;;;;;;;;;;5074824;28;20086;-61
2021/12/07 13:37:43;;;;;;;8.35;3.15;;;;;;;;;;5074182;28;20044;-61
2021/12/07 13:40:19;;;;;;;7.13;3.40;;;;;;;;;;5074479;28;20105;-59
2021/12/07 13:42:47;;;;;;;7.90;3.17;;;;;;;;;;5074731;28;20048;-61
2021/12/07 13:45:17;;;;;;;9.82;3.42;;;;;;;;;;5073781;28;20068;-62
2021/12/07 13:47:44;;;;;;;5.03;3.25;;;;;;;;;;5073804;28;20053;-61
2021/12/07 13:50:12;;;;;;;7.30;3.55;;;;;;;;;;5074243;28;20523;-61
2021/12/07 13:52:39;;;;;;;6.55;3.40;;;;;;;;;;5073480;28;20044;-61
2021/12/07 13:55:09;;;;;;;10.65;3.33;;;;;;;;;;5074231;28;20110;-61
2021/12/07 13:57:38;;;;;;;9.27;3.80;;;;;;;;;;5074292;28;20110;-61
2021/12/07 14:00:07;;;;;;;7.03;3.13;;;;;;;;;;5053432;28;20049;-61
2021/12/07 14:02:34;;;;;;;4.93;2.97;;;;;;;;;;5054268;28;20052;-61
2021/12/07 14:05:02;;;;;;;16.92;3.90;;;;;;;;;;5053825;28;20052;-62
2021/12/07 14:07:30;;;;;;;6.97;3.28;;;;;;;;;;5053251;28;20045;-61
2021/12/07 14:10:03;;;;;;;8.23;3.13;;;;;;;;;;5054173;28;20079;-61
2021/12/07 14:12:29;;;;;;;9.82;3.75;;;;;;;;;;5053405;28;20107;-62
2021/12/07 14:15:05;;;;;;;10.60;3.58;;;;;;;;;;5053526;28;20095;-61
2021/12/07 14:17:42;;;;;;;10.82;3.83;;;;;;;;;;5054096;28;20048;-61
2021/12/07 14:20:08;;;;;;;6.70;3.35;;;;;;;;;;5052991;28;20049;-61
2021/12/07 14:22:35;;;;;;;6.07;3.10;;;;;;;;;;5053882;28;20087;-61
2021/12/07 14:25:01;;;;;;;9.55;3.55;;;;;;;;;;5053679;28;20397;-62
2021/12/07 14:27:27;;;;;;;7.55;3.38;;;;;;;;;;5051952;28;20045;-61
2021/12/07 14:29:54;;;;;;;7.18;3.42;;;;;;;;;;5057433;28;20093;-60
2021/12/07 14:32:21;;;;;;;7.43;3.20;;;;;;;;;;5072026;28;20044;-61
2021/12/07 14:34:48;;;;;;;10.98;3.67;;;;;;;;;;5071145;28;20044;-62
2021/12/07 14:37:15;;;;;;;9.57;3.67;;;;;;;;;;5072821;28;20127;-62
2021/12/07 14:39:42;;;;;;;8.43;3.60;;;;;;;;;;5073277;28;20102;-61
2021/12/07 14:42:09;;;;;;;10.38;3.60;;;;;;;;;;5072862;28;20106;-62
2021/12/07 14:44:36;;;;;;;11.95;3.88;;;;;;;;;;5073257;28;20393;-62
2021/12/07 14:47:04;;;;;;;9.18;3.53;;;;;;;;;;5072565;28;20082;-61
2021/12/07 14:49:33;;;;;;;8.00;3.40;;;;;;;;;;5072316;28;20048;-62
2021/12/07 14:52:00;;;;;;;10.65;4.07;;;;;;;;;;5073020;28;20455;-64
2021/12/07 14:54:26;;;;;;;9.35;3.38;;;;;;;;;;5073767;28;20048;-64
2021/12/07 14:56:53;;;;;;;10.30;3.90;;;;;;;;;;5072369;28;20110;-64
2021/12/07 14:59:20;;;;;;;8.55;4.15;;;;;;;;;;5073315;28;20044;-63
2021/12/07 15:01:48;;;;;;;13.30;4.25;;;;;;;;;;5072200;28;20483;-65
2021/12/07 15:04:15;;;;;;;10.95;3.35;;;;;;;;;;5073135;28;20527;-65
2021/12/07 15:06:46;;;;;;;9.35;4.15;;;;;;;;;;5073270;28;20102;-65
2021/12/07 15:09:12;;;;;;;6.88;3.60;;;;;;;;;;5072500;28;20419;-64
2021/12/07 15:11:39;;;;;;;9.38;3.55;;;;;;;;;;5073062;28;20057;-64
2021/12/07 15:14:07;;;;;;;12.00;3.95;;;;;;;;;;5072372;28;20045;-64
2021/12/07 15:16:33;;;;;;;10.65;3.35;;;;;;;;;;5071579;28;20098;-64
2021/12/07 15:19:01;;;;;;;16.95;4.82;;;;;;;;;;5072288;28;20110;-63
2021/12/07 15:21:28;;;;;;;11.45;4.05;;;;;;;;;;5072719;28;20044;-64
2021/12/07 15:23:56;;;;;;;11.93;3.45;;;;;;;;;;5071346;28;20044;-64
2021/12/07 15:26:24;;;;;;;10.65;3.30;;;;;;;;;;5072244;28;20487;-65
2021/12/07 15:28:54;;;;;;;11.23;3.30;;;;;;;;;;5072461;28;20044;-65
2021/12/07 15:31:20;;;;;;;7.78;3.85;;;;;;;;;;5072286;28;20074;-65
2021/12/07 15:33:47;;;;;;;8.60;3.97;;;;;;;;;;5072979;28;20048;-65
2021/12/07 15:36:17;;;;;;;8.95;3.40;;;;;;;;;;5072098;28;20563;-65
2021/12/07 15:38:43;;;;;;;9.27;3.55;;;;;;;;;;5070901;28;20049;-65
2021/12/07 15:41:12;;;;;;;14.25;3.92;;;;;;;;;;5072054;28;20044;-65
2021/12/07 15:43:40;;;;;;;9.35;3.95;;;;;;;;;;5072240;28;20717;-65
2021/12/07 15:46:06;;;;;;;9.70;3.80;;;;;;;;;;5071462;28;20040;-65
2021/12/07 15:48:33;;;;;;;9.85;3.92;;;;;;;;;;5072120;28;20494;-65
2021/12/07 15:51:01;;;;;;;9.77;3.88;;;;;;;;;;5071157;28;20055;-63
2021/12/07 15:53:28;;;;;;;9.48;3.70;;;;;;;;;;5071361;28;20037;-63
2021/12/07 15:55:54;;;;;;;10.55;3.72;;;;;;;;;;5071712;28;20048;-63
2021/12/07 15:58:24;;;;;;;7.50;3.72;;;;;;;;;;5071193;28;20056;-63
2021/12/07 16:00:51;;;;;;;9.15;4.00;;;;;;;;;;5071746;28;20056;-63
2021/12/07 16:03:18;;;;;;;9.32;4.30;;;;;;;;;;5071745;28;20052;-63
2021/12/07 16:05:47;;;;;;;8.25;3.80;;;;;;;;;;5070813;28;20106;-62
2021/12/07 16:08:13;;;;;;;9.48;4.07;;;;;;;;;;5071677;28;20492;-63
2021/12/07 16:10:41;;;;;;;11.45;4.18;;;;;;;;;;5071680;28;20048;-62
2021/12/07 16:13:08;;;;;;;9.98;3.80;;;;;;;;;;5071107;28;20071;-62
2021/12/07 16:15:36;;;;;;;9.48;4.15;;;;;;;;;;5071588;28;20135;-62